createdAt,value
2018-09-12T00:02:07.256Z,24.79
2018-09-12T00:04:35.005Z,24.79
2018-09-12T00:07:03.319Z,24.79
2018-09-12T00:09:32.218Z,24.80
2018-09-12T00:12:00.538Z,24.79
2018-09-12T00:14:28.859Z,24.79
2018-09-12T00:16:56.606Z,24.79
2018-09-12T00:19:25.528Z,24.79
2018-09-12T00:21:53.254Z,24.79
2018-09-12T00:24:22.153Z,24.79
2018-09-12T00:26:49.897Z,24.79
2018-09-12T00:29:18.795Z,24.79
2018-09-12T00:31:46.534Z,24.79
2018-09-12T00:34:14.950Z,24.81
2018-09-12T00:36:43.757Z,24.81
2018-09-12T00:39:12.082Z,24.80
2018-09-12T00:41:39.824Z,24.80
2018-09-12T00:44:08.730Z,24.80
2018-09-12T00:46:37.044Z,24.80
2018-09-12T00:49:05.366Z,24.81
2018-09-12T00:51:34.200Z,24.79
2018-09-12T00:54:02.516Z,24.80
2018-09-12T00:56:30.834Z,24.80
2018-09-12T00:58:58.577Z,24.80
2018-09-12T01:01:27.474Z,24.80
2018-09-12T01:03:55.805Z,24.79
2018-09-12T01:06:24.127Z,24.80
2018-09-12T01:08:52.446Z,24.80
2018-09-12T01:11:20.772Z,24.79
2018-09-12T01:13:48.529Z,24.79
2018-09-12T01:16:18.755Z,24.79
2018-09-12T01:18:47.654Z,24.80
2018-09-12T01:21:17.941Z,24.79
2018-09-12T01:23:46.261Z,24.80
2018-09-12T01:26:14.581Z,24.81
2018-09-12T01:28:42.529Z,24.80
2018-09-12T01:31:11.227Z,24.80
2018-09-12T01:33:39.554Z,24.80
2018-09-12T01:36:07.288Z,24.80
2018-09-12T01:38:36.186Z,24.81
2018-09-12T01:41:04.505Z,24.81
2018-09-12T01:43:32.837Z,24.81
2018-09-12T01:46:01.231Z,24.81
2018-09-12T01:48:29.552Z,24.82
2018-09-12T01:50:57.874Z,24.81
2018-09-12T01:53:25.768Z,24.82
2018-09-12T01:55:54.753Z,24.81
2018-09-12T01:58:23.076Z,24.81
2018-09-12T02:00:51.398Z,24.80
2018-09-12T02:03:20.221Z,24.81
2018-09-12T02:05:47.965Z,24.82
2018-09-12T02:08:16.867Z,24.81
2018-09-12T02:10:45.181Z,24.81
2018-09-12T02:13:13.508Z,24.81
2018-09-12T02:15:41.244Z,24.80
2018-09-12T02:18:10.141Z,24.82
2018-09-12T02:20:38.472Z,24.80
2018-09-12T02:23:06.376Z,24.81
2018-09-12T02:25:35.110Z,24.81
2018-09-12T02:28:03.429Z,24.82
2018-09-12T02:30:31.750Z,24.82
2018-09-12T02:32:59.488Z,24.82
2018-09-12T02:35:28.386Z,24.81
2018-09-12T02:37:56.132Z,24.81
2018-09-12T02:40:25.029Z,24.82
2018-09-12T02:42:53.354Z,24.82
2018-09-12T02:45:21.688Z,24.81
2018-09-12T02:47:49.425Z,24.80
2018-09-12T02:50:17.835Z,24.81
2018-09-12T02:52:46.733Z,24.80
2018-09-12T02:55:15.057Z,24.81
2018-09-12T02:57:43.383Z,24.81
2018-09-12T03:00:11.122Z,24.82
2018-09-12T03:02:39.445Z,24.81
2018-09-12T03:05:08.343Z,24.83
2018-09-12T03:07:36.664Z,24.83
2018-09-12T03:10:04.988Z,24.82
2018-09-12T03:12:33.310Z,24.81
2018-09-12T03:15:01.632Z,24.82
2018-09-12T03:17:29.377Z,24.83
2018-09-12T03:19:58.273Z,24.83
2018-09-12T03:22:26.590Z,24.81
2018-09-12T03:24:54.909Z,24.82
2018-09-12T03:27:22.650Z,24.81
2018-09-12T03:29:51.553Z,24.82
2018-09-12T03:32:19.874Z,24.81
2018-09-12T03:34:48.189Z,24.82
2018-09-12T03:37:16.506Z,24.82
2018-09-12T03:39:44.251Z,24.81
2018-09-12T03:42:13.157Z,24.82
2018-09-12T03:44:41.513Z,24.82
2018-09-12T03:47:10.415Z,24.82
2018-09-12T03:49:38.738Z,24.82
2018-09-12T03:52:07.065Z,24.82
2018-09-12T03:54:34.858Z,24.81
2018-09-12T03:57:03.705Z,24.81
2018-09-12T03:59:31.456Z,24.82
2018-09-12T04:02:00.359Z,24.81
2018-09-12T04:04:28.681Z,24.82
2018-09-12T04:06:57.006Z,24.83
2018-09-12T04:09:25.325Z,24.86
2018-09-12T04:11:53.642Z,24.86
2018-09-12T04:14:21.966Z,24.92
2018-09-12T04:16:53.777Z,24.85
2018-09-12T04:19:22.034Z,24.82
2018-09-12T04:21:50.358Z,24.79
2018-09-12T04:24:18.755Z,24.83
2018-09-12T04:26:46.423Z,24.84
2018-09-12T04:29:15.328Z,24.85
2018-09-12T04:31:43.069Z,24.84
2018-09-12T04:34:11.392Z,24.84
2018-09-12T04:36:40.289Z,24.83
2018-09-12T04:39:08.612Z,24.80
2018-09-12T04:41:36.933Z,24.86
2018-09-12T04:44:05.262Z,24.79
2018-09-12T04:46:33.015Z,24.78
2018-09-12T04:49:01.929Z,24.79
2018-09-12T04:51:29.688Z,24.82
2018-09-12T04:53:58.022Z,24.81
2018-09-12T04:56:26.359Z,24.81
2018-09-12T04:58:55.186Z,24.81
2018-09-12T05:01:23.602Z,24.79
2018-09-12T05:03:52.000Z,24.79
2018-09-12T05:06:20.332Z,24.79
2018-09-12T05:08:48.668Z,24.79
2018-09-12T05:11:16.996Z,24.80
2018-09-12T05:13:44.744Z,24.79
2018-09-12T05:16:13.074Z,24.72
2018-09-12T05:18:41.406Z,24.71
2018-09-12T05:21:09.737Z,24.76
2018-09-12T05:23:38.069Z,24.82
2018-09-12T05:26:06.403Z,24.79
2018-09-12T05:28:35.378Z,24.81
2018-09-12T05:31:03.654Z,24.76
2018-09-12T05:33:31.411Z,24.78
2018-09-12T05:36:00.033Z,24.76
2018-09-12T05:38:38.649Z,24.78
2018-09-12T05:41:08.572Z,24.79
2018-09-12T05:43:36.324Z,24.79
2018-09-12T05:46:05.256Z,24.81
2018-09-12T05:48:33.583Z,24.82
2018-09-12T05:51:01.339Z,24.80
2018-09-12T05:53:29.666Z,24.82
2018-09-12T05:55:58.579Z,24.82
2018-09-12T05:58:26.325Z,24.82
2018-09-12T06:00:54.668Z,24.81
2018-09-12T06:03:23.587Z,24.73
2018-09-12T06:05:51.927Z,24.78
2018-09-12T06:08:20.261Z,24.77
2018-09-12T06:10:48.641Z,24.74
2018-09-12T06:13:17.304Z,24.79
2018-09-12T06:15:45.052Z,24.73
2018-09-12T06:18:13.385Z,24.73
2018-09-12T06:20:42.296Z,24.64
2018-09-12T06:23:10.632Z,24.70
2018-09-12T06:25:38.383Z,24.67
2018-09-12T06:28:07.300Z,24.68
2018-09-12T06:30:35.638Z,24.68
2018-09-12T06:33:04.454Z,24.69
2018-09-12T06:35:32.205Z,24.65
2018-09-12T06:38:00.545Z,24.65
2018-09-12T06:40:28.880Z,24.69
2018-09-12T06:42:57.212Z,24.70
2018-09-12T06:45:25.550Z,24.71
2018-09-12T06:47:54.462Z,24.77
2018-09-12T06:50:22.214Z,24.74
2018-09-12T06:52:51.129Z,24.77
2018-09-12T06:55:19.464Z,24.80
2018-09-12T06:57:47.796Z,24.82
2018-09-12T07:00:15.550Z,24.81
2018-09-12T07:02:59.459Z,24.85
2018-09-12T07:05:27.210Z,24.82
2018-09-12T07:08:01.449Z,24.83
2018-09-12T07:10:29.191Z,24.85
2018-09-12T07:12:58.111Z,24.83
2018-09-12T07:15:26.447Z,24.83
2018-09-12T07:17:54.693Z,24.85
2018-09-12T07:20:22.529Z,24.82
2018-09-12T07:22:50.861Z,24.71
2018-09-12T07:25:19.196Z,24.79
2018-09-12T07:27:48.120Z,24.78
2018-09-12T07:30:17.061Z,24.81
2018-09-12T07:32:44.820Z,24.81
2018-09-12T07:35:13.734Z,24.82
2018-09-12T07:37:41.484Z,24.81
2018-09-12T07:40:09.818Z,24.82
2018-09-12T07:42:38.768Z,24.80
2018-09-12T07:45:07.112Z,24.77
2018-09-12T07:47:35.464Z,24.78
2018-09-12T07:50:03.789Z,24.78
2018-09-12T07:52:32.120Z,24.82
2018-09-12T07:54:59.873Z,24.82
2018-09-12T07:57:28.788Z,24.81
2018-09-12T07:59:57.174Z,24.78
2018-09-12T08:02:25.460Z,24.84
2018-09-12T08:04:53.279Z,24.84
2018-09-12T08:07:21.694Z,24.81
2018-09-12T08:09:50.474Z,24.80
2018-09-12T08:12:18.948Z,24.73
2018-09-12T08:14:46.558Z,24.70
2018-09-12T08:17:15.517Z,24.78
2018-09-12T08:19:43.245Z,24.81
2018-09-12T08:22:12.173Z,24.83
2018-09-12T08:24:40.442Z,24.80
2018-09-12T08:27:08.828Z,24.80
2018-09-12T08:29:36.586Z,24.80
2018-09-12T08:32:05.564Z,24.84
2018-09-12T08:34:33.903Z,24.84
2018-09-12T08:37:01.656Z,24.84
2018-09-12T08:39:30.576Z,24.84
2018-09-12T08:41:58.387Z,24.83
2018-09-12T08:44:27.236Z,24.59
2018-09-12T08:46:55.649Z,24.32
2018-09-12T08:49:23.325Z,24.35
2018-09-12T08:51:52.235Z,24.63
2018-09-12T08:54:20.569Z,24.74
2018-09-12T08:56:48.920Z,24.77
2018-09-12T08:59:17.240Z,24.79
2018-09-12T09:01:45.625Z,24.81
2018-09-12T09:04:26.288Z,24.79
2018-09-12T09:06:54.639Z,24.83
2018-09-12T09:09:23.050Z,24.84
2018-09-12T09:11:51.640Z,24.85
2018-09-12T09:14:20.557Z,24.85
2018-09-12T09:16:48.312Z,24.84
2018-09-12T09:19:17.221Z,24.84
2018-09-12T09:21:45.365Z,24.85
2018-09-12T09:24:13.890Z,24.84
2018-09-12T09:26:50.495Z,24.83
2018-09-12T09:29:18.245Z,24.83
2018-09-12T09:31:47.155Z,24.85
2018-09-12T09:34:14.906Z,24.84
2018-09-12T09:36:43.244Z,24.88
2018-09-12T09:39:12.164Z,24.87
2018-09-12T09:41:40.498Z,24.85
2018-09-12T09:44:08.318Z,24.85
2018-09-12T09:46:36.589Z,24.83
2018-09-12T09:49:05.060Z,24.83
2018-09-12T09:51:33.975Z,24.78
2018-09-12T09:54:01.739Z,24.72
2018-09-12T09:56:30.653Z,24.75
2018-09-12T09:58:58.989Z,24.79
2018-09-12T10:01:29.256Z,24.80
2018-09-12T10:03:57.591Z,24.81
2018-09-12T10:06:25.346Z,24.82
2018-09-12T10:08:54.257Z,24.81
2018-09-12T10:11:22.594Z,24.81
2018-09-12T10:13:50.927Z,24.79
2018-09-12T10:16:19.263Z,24.82
2018-09-12T10:18:47.603Z,24.80
2018-09-12T10:21:15.934Z,24.81
2018-09-12T10:23:43.694Z,24.81
2018-09-12T10:26:13.199Z,24.83
2018-09-12T10:28:40.992Z,24.89
2018-09-12T10:31:09.327Z,25.07
2018-09-12T10:33:38.232Z,25.09
2018-09-12T10:36:06.567Z,25.22
2018-09-12T10:38:34.417Z,25.25
2018-09-12T10:41:03.364Z,25.15
2018-09-12T10:43:31.081Z,25.14
2018-09-12T10:45:59.417Z,25.20
2018-09-12T10:48:27.755Z,25.16
2018-09-12T10:50:56.671Z,25.11
2018-09-12T10:53:24.994Z,25.14
2018-09-12T10:55:52.752Z,25.03
2018-09-12T10:58:21.674Z,25.07
2018-09-12T11:00:50.007Z,25.07
2018-09-12T11:03:17.765Z,25.12
2018-09-12T11:05:46.099Z,25.07
2018-09-12T11:08:14.432Z,25.24
2018-09-12T11:10:47.843Z,25.21
2018-09-12T11:13:16.180Z,25.22
2018-09-12T11:15:44.698Z,25.30
2018-09-12T11:18:13.491Z,25.24
2018-09-12T11:20:41.824Z,25.15
2018-09-12T11:23:09.574Z,25.26
2018-09-12T11:25:38.491Z,25.18
2018-09-12T11:28:06.828Z,25.30
2018-09-12T11:30:35.160Z,25.21
2018-09-12T11:33:03.490Z,25.26
2018-09-12T11:35:31.677Z,25.32
2018-09-12T11:38:00.710Z,25.25
2018-09-12T11:40:29.044Z,25.15
2018-09-12T11:42:57.379Z,25.20
2018-09-12T11:45:25.707Z,25.14
2018-09-12T11:47:53.462Z,25.12
2018-09-12T11:50:22.380Z,25.26
2018-09-12T11:52:50.718Z,25.23
2018-09-12T11:55:18.466Z,25.21
2018-09-12T11:57:46.815Z,25.31
2018-09-12T12:00:15.726Z,25.25
2018-09-12T12:02:44.058Z,25.28
2018-09-12T12:05:12.393Z,25.17
2018-09-12T12:07:40.144Z,25.14
2018-09-12T12:10:09.061Z,25.25
2018-09-12T12:12:36.812Z,25.26
2018-09-12T12:15:10.994Z,25.27
2018-09-12T12:17:39.870Z,25.19
2018-09-12T12:20:08.195Z,25.21
2018-09-12T12:22:35.942Z,25.14
2018-09-12T12:25:04.270Z,25.37
2018-09-12T12:27:33.267Z,25.17
2018-09-12T12:30:01.617Z,25.20
2018-09-12T12:32:29.369Z,25.18
2018-09-12T12:34:57.959Z,25.27
2018-09-12T12:37:26.629Z,25.25
2018-09-12T12:39:54.964Z,25.30
2018-09-12T12:42:22.722Z,25.27
2018-09-12T12:44:51.065Z,25.20
2018-09-12T12:47:20.352Z,25.16
2018-09-12T12:49:48.684Z,25.07
2018-09-12T12:52:17.910Z,25.15
2018-09-12T12:54:46.271Z,25.06
2018-09-12T12:57:14.608Z,25.07
2018-09-12T12:59:42.557Z,25.09
2018-09-12T13:02:11.472Z,25.04
2018-09-12T13:04:39.266Z,25.22
2018-09-12T13:07:07.701Z,25.19
2018-09-12T13:09:36.326Z,25.17
2018-09-12T13:12:04.929Z,25.16
2018-09-12T13:14:33.467Z,25.21
2018-09-12T13:17:01.741Z,25.12
2018-09-12T13:19:30.067Z,25.11
2018-09-12T13:21:58.394Z,25.03
2018-09-12T13:24:26.834Z,24.75
2018-09-12T13:26:54.581Z,24.74
2018-09-12T13:29:23.596Z,24.83
2018-09-12T13:31:51.340Z,25.06
2018-09-12T13:34:20.264Z,25.10
2018-09-12T13:36:48.583Z,25.09
2018-09-12T13:39:16.901Z,24.97
2018-09-12T13:41:45.225Z,25.07
2018-09-12T13:44:13.546Z,25.15
2018-09-12T13:46:41.399Z,25.19
2018-09-12T13:49:09.707Z,25.11
2018-09-12T13:51:38.608Z,25.11
2018-09-12T13:54:07.347Z,25.02
2018-09-12T13:56:35.617Z,25.10
2018-09-12T13:59:04.475Z,25.04
2018-09-12T14:01:32.481Z,24.85
2018-09-12T14:04:01.394Z,24.74
2018-09-12T14:06:29.724Z,24.78
2018-09-12T14:08:58.450Z,24.74
2018-09-12T14:11:26.106Z,24.80
2018-09-12T14:13:55.009Z,24.84
2018-09-12T14:16:23.326Z,24.88
2018-09-12T14:18:51.068Z,25.02
2018-09-12T14:21:19.972Z,25.06
2018-09-12T14:23:47.906Z,25.02
2018-09-12T14:26:16.816Z,24.91
2018-09-12T14:28:44.566Z,24.86
2018-09-12T14:31:13.468Z,24.87
2018-09-12T14:33:41.801Z,24.88
2018-09-12T14:36:10.286Z,24.78
2018-09-12T14:38:38.666Z,24.89
2018-09-12T14:41:06.583Z,24.86
2018-09-12T14:43:35.366Z,24.99
2018-09-12T14:46:03.691Z,24.44
2018-09-12T14:48:32.025Z,24.80
2018-09-12T14:51:00.345Z,25.02
2018-09-12T14:53:28.674Z,25.06
2018-09-12T14:55:57.019Z,24.98
2018-09-12T14:58:24.765Z,25.05
2018-09-12T15:00:53.368Z,25.00
2018-09-12T15:03:21.988Z,25.05
2018-09-12T15:05:49.732Z,25.02
2018-09-12T15:08:18.223Z,25.16
2018-09-12T15:10:46.953Z,25.03
2018-09-12T15:13:15.289Z,25.04
2018-09-12T15:15:43.604Z,25.00
2018-09-12T15:18:11.361Z,25.15
2018-09-12T15:20:40.275Z,25.08
2018-09-12T15:23:08.600Z,25.05
2018-09-12T15:25:36.932Z,25.10
2018-09-12T15:28:05.541Z,25.10
2018-09-12T15:30:33.864Z,25.12
2018-09-12T15:33:02.188Z,25.10
2018-09-12T15:35:29.938Z,25.10
2018-09-12T15:37:58.839Z,25.11
2018-09-12T15:40:27.167Z,25.11
2018-09-12T15:42:55.347Z,25.09
2018-09-12T15:45:23.808Z,25.05
2018-09-12T15:47:52.139Z,25.00
2018-09-12T15:50:20.465Z,24.85
2018-09-12T15:52:48.360Z,24.87
2018-09-12T15:55:17.121Z,24.87
2018-09-12T15:57:45.496Z,24.99
2018-09-12T16:00:13.771Z,25.03
2018-09-12T16:02:42.160Z,24.89
2018-09-12T16:05:09.861Z,24.85
2018-09-12T16:07:38.820Z,24.95
2018-09-12T16:10:06.801Z,24.97
2018-09-12T16:12:34.895Z,24.96
2018-09-12T16:15:03.807Z,24.97
2018-09-12T16:17:32.123Z,24.89
2018-09-12T16:19:59.873Z,24.91
2018-09-12T16:22:28.770Z,24.85
2018-09-12T16:24:57.006Z,24.88
2018-09-12T16:27:25.338Z,24.84
2018-09-12T16:29:54.268Z,24.76
2018-09-12T16:32:22.589Z,24.70
2018-09-12T16:34:50.921Z,24.48
2018-09-12T16:37:19.133Z,24.22
2018-09-12T16:39:48.044Z,24.50
2018-09-12T16:42:16.370Z,24.05
2018-09-12T16:44:44.693Z,23.04
2018-09-12T16:47:13.019Z,23.29
2018-09-12T16:49:41.345Z,24.20
2018-09-12T16:52:10.201Z,24.50
2018-09-12T16:54:38.520Z,24.40
2018-09-12T16:57:06.278Z,24.09
2018-09-12T16:59:35.235Z,24.30
2018-09-12T17:02:03.688Z,24.31
2018-09-12T17:04:32.102Z,24.33
2018-09-12T17:07:00.439Z,24.45
2018-09-12T17:09:28.868Z,24.68
2018-09-12T17:11:56.728Z,24.73
2018-09-12T17:14:24.952Z,24.78
2018-09-12T17:16:53.852Z,24.90
2018-09-12T17:19:22.486Z,24.96
2018-09-12T17:21:50.816Z,24.99
2018-09-12T17:24:19.154Z,24.88
2018-09-12T17:26:48.336Z,24.77
2018-09-12T17:29:16.807Z,24.84
2018-09-12T17:31:44.493Z,24.73
2018-09-12T17:34:12.825Z,24.74
2018-09-12T17:36:41.237Z,24.77
2018-09-12T17:39:10.243Z,24.84
2018-09-12T17:41:42.111Z,24.93
2018-09-12T17:44:09.864Z,24.86
2018-09-12T17:46:38.794Z,24.93
2018-09-12T17:49:07.131Z,24.99
2018-09-12T17:51:35.495Z,24.92
2018-09-12T17:54:10.072Z,24.85
2018-09-12T17:56:37.868Z,24.96
2018-09-12T17:59:06.202Z,24.96
2018-09-12T18:01:35.116Z,25.04
2018-09-12T18:04:03.583Z,24.97
2018-09-12T18:06:31.918Z,25.02
2018-09-12T18:09:00.371Z,25.01
2018-09-12T18:11:28.722Z,25.07
2018-09-12T18:13:57.243Z,25.07
2018-09-12T18:16:25.616Z,25.07
2018-09-12T18:18:53.970Z,25.14
2018-09-12T18:21:24.510Z,25.12
2018-09-12T18:23:51.592Z,25.22
2018-09-12T18:26:20.648Z,25.26
2018-09-12T18:28:48.406Z,25.26
2018-09-12T18:31:16.788Z,25.32
2018-09-12T18:33:45.707Z,25.31
2018-09-12T18:36:14.127Z,25.36
2018-09-12T18:38:42.374Z,25.32
2018-09-12T18:41:10.796Z,25.34
2018-09-12T18:43:39.148Z,25.17
2018-09-12T18:46:07.492Z,25.21
2018-09-12T18:48:35.825Z,25.23
2018-09-12T18:51:03.581Z,25.24
2018-09-12T18:53:32.511Z,25.32
2018-09-12T18:56:01.112Z,25.35
2018-09-12T18:58:29.472Z,25.35
2018-09-12T19:00:57.817Z,25.35
2018-09-12T19:03:26.874Z,25.41
2018-09-12T19:05:55.224Z,25.44
2018-09-12T19:08:23.549Z,25.46
2018-09-12T19:10:52.581Z,25.44
2018-09-12T19:13:21.011Z,25.49
2018-09-12T19:15:49.337Z,25.42
2018-09-12T19:18:18.132Z,23.41
2018-09-12T19:20:46.461Z,23.39
2018-09-12T19:23:15.745Z,24.57
2018-09-12T19:25:44.147Z,25.00
2018-09-12T19:28:12.481Z,25.02
2018-09-12T19:30:40.817Z,24.94
2018-09-12T19:33:09.152Z,24.98
2018-09-12T19:35:37.483Z,25.17
2018-09-12T19:38:05.812Z,25.14
2018-09-12T19:40:34.147Z,25.25
2018-09-12T19:43:02.490Z,25.31
2018-09-12T19:45:30.818Z,25.31
2018-09-12T19:47:58.577Z,25.35
2018-09-12T19:50:28.634Z,25.39
2018-09-12T19:52:56.994Z,25.39
2018-09-12T19:55:25.369Z,25.43
2018-09-12T19:57:53.701Z,25.50
2018-09-12T20:00:21.473Z,25.44
2018-09-12T20:02:50.397Z,25.70
2018-09-12T20:05:19.370Z,25.58
2018-09-12T20:07:47.701Z,25.98
2018-09-12T20:10:20.762Z,25.67
2018-09-12T20:12:49.129Z,25.51
2018-09-12T20:15:17.462Z,25.49
2018-09-12T20:17:46.420Z,25.52
2018-09-12T20:20:14.784Z,25.47
2018-09-12T20:22:43.134Z,25.45
2018-09-12T20:25:11.045Z,25.45
2018-09-12T20:27:39.972Z,25.49
2018-09-12T20:30:08.439Z,25.56
2018-09-12T20:32:36.749Z,25.45
2018-09-12T20:35:05.020Z,25.79
2018-09-12T20:37:33.357Z,25.53
2018-09-12T20:40:01.700Z,25.44
2018-09-12T20:42:29.556Z,25.23
2018-09-12T20:44:57.790Z,25.19
2018-09-12T20:47:26.129Z,25.27
2018-09-12T20:49:55.047Z,25.40
2018-09-12T20:52:23.383Z,25.58
2018-09-12T20:54:51.157Z,25.59
2018-09-12T20:57:21.433Z,25.39
2018-09-12T20:59:49.769Z,25.39
2018-09-12T21:02:18.691Z,25.36
2018-09-12T21:04:46.474Z,25.44
2018-09-12T21:07:15.404Z,25.14
2018-09-12T21:09:43.731Z,25.18
2018-09-12T21:12:11.610Z,25.42
2018-09-12T21:14:39.945Z,25.43
2018-09-12T21:17:08.870Z,25.44
2018-09-12T21:19:37.214Z,25.44
2018-09-12T21:22:05.555Z,25.49
2018-09-12T21:24:33.899Z,25.44
2018-09-12T21:27:01.654Z,25.54
2018-09-12T21:29:29.985Z,25.54
2018-09-12T21:31:58.325Z,25.30
2018-09-12T21:34:26.654Z,25.28
2018-09-12T21:36:55.568Z,25.43
2018-09-12T21:39:23.328Z,25.39
2018-09-12T21:41:51.669Z,25.47
2018-09-12T21:44:20.592Z,25.44
2018-09-12T21:46:48.933Z,25.51
2018-09-12T21:49:16.801Z,25.54
2018-09-12T21:51:45.719Z,25.44
2018-09-12T21:54:14.146Z,25.43
2018-09-12T21:56:42.489Z,25.40
2018-09-12T21:59:10.236Z,25.42
2018-09-12T22:01:39.470Z,25.42
2018-09-12T22:04:07.875Z,25.47
2018-09-12T22:06:35.624Z,25.33
2018-09-12T22:09:03.962Z,25.41
2018-09-12T22:11:32.300Z,25.40
2018-09-12T22:14:00.632Z,25.40
2018-09-12T22:16:28.970Z,25.41
2018-09-12T22:18:57.875Z,25.42
2018-09-12T22:21:26.208Z,25.38
2018-09-12T22:23:54.438Z,25.41
2018-09-12T22:26:22.764Z,25.35
2018-09-12T22:28:51.662Z,25.34
2018-09-12T22:31:19.409Z,25.36
2018-09-12T22:33:48.313Z,25.52
2018-09-12T22:36:16.060Z,25.60
2018-09-12T22:38:44.965Z,25.50
2018-09-12T22:41:13.284Z,25.40
2018-09-12T22:43:41.641Z,25.38
2018-09-12T22:46:09.961Z,25.40
2018-09-12T22:48:38.284Z,25.32
2018-09-12T22:51:06.115Z,25.30
2018-09-12T22:53:35.023Z,25.42
2018-09-12T22:56:03.334Z,25.37
2018-09-12T22:58:31.072Z,25.37
2018-09-12T23:00:59.405Z,25.42
2018-09-12T23:03:28.695Z,25.34
2018-09-12T23:05:56.432Z,25.38
2018-09-12T23:08:25.325Z,25.31
2018-09-12T23:10:53.074Z,25.36
2018-09-12T23:13:22.006Z,25.35
2018-09-12T23:15:50.322Z,25.38
2018-09-12T23:18:18.644Z,25.37
2018-09-12T23:20:47.463Z,25.35
2018-09-12T23:23:15.785Z,25.35
2018-09-12T23:25:44.108Z,25.36
2018-09-12T23:28:12.425Z,25.30
2018-09-12T23:30:40.745Z,25.32
2018-09-12T23:33:08.482Z,25.28
2018-09-12T23:35:37.382Z,25.32
2018-09-12T23:38:05.701Z,25.28
2018-09-12T23:40:34.021Z,25.27
2018-09-12T23:43:01.908Z,25.26
2018-09-12T23:45:30.670Z,25.28
2018-09-12T23:47:58.984Z,25.31
2018-09-12T23:50:27.307Z,25.26
2018-09-12T23:52:55.621Z,25.26
2018-09-12T23:55:23.949Z,25.26
2018-09-12T23:57:52.268Z,25.20
